Bonners Ferry, ID (83805)

8:00 AM PDT on September 01, 2014 (GMT -0700)
Paradise Valley | Change Station
CLOSE
Current Station
Personal Weather Station
Location: Bonner Ferry, ID
Elevation: 2300 ft
Nearby Weather Stations

Elev 2300 ft 48.67 °N, 116.30 °W | Updated 0 second ago

Fog
Fog
51.3 °F
Feels Like 51.3 °F
N
0.7
Wind Variable Wind from SSW
Gusts 1.6 mph

Today
High -- | Low -- °F
--% Chance of Precip.
Yesterday
High -- | Low -- °F
Precip. -- in
6:02 AM 7:27 PM
Waxing Crescent, 41% visible
Pressure 30.03 in
Visibility 0.2 miles
Clouds Overcast 200 ft
Dew Point 51 °F
Humidity 99%
Rainfall 0.00 in
Snow Depth 0 in
UV 0 out of 12
Pollen 6.50 out of 12
Air Quality Not available.
Flu Activity Not available.
METAR K65S 011455Z AUTO 19003KT M1/4SM FG OVC002 10/10 A3003 RMK AO2

More Conditions Fewer Conditions

Pressure 30.03 in
Visibility 0.2 miles
Clouds Overcast 200 ft
Dew Point 51 °F
Humidity 99%
Rainfall 0.00 in
Snow Depth 0 in
UV 0 out of 12
Pollen 6.50 out of 12
Air Quality Not available.
Flu Activity Not available.
METAR K65S 011455Z AUTO 19003KT M1/4SM FG OVC002 10/10 A3003 RMK AO2

More Conditions Fewer Conditions

10-Day Weather Forecast

Almanac

Astronomy

Sep. 01, 2014 Rise Set
Actual Time 6:02 AM PDT 7:27 PM PDT
Civil Twilight 5:29 AM PDT 7:59 PM PDT
Nautical Twilight 4:49 AM PDT 8:39 PM PDT
Astronomical Twilight 4:06 AM PDT 9:21 PM PDT
Moon 1:26 PM PDT 10:57 PM PDT
Length of Visible Light 14h 29m
Length of Day
13h 24m
Tomorrow will be 3m 28s shorter.
Waxing Crescent, 41% of the Moon is Illuminated
Today
Waxing Crescent
Sep 2
First Quarter
Sep 8
Full
Sep 15
Last Quarter
Sep 24
New

Today's Extremes

State Highs State Lows

Community

WunderPhotos

Upload Photos

1,749,256 photos uploaded!

Nearby

Snow Depth

Station Depth Elevation
Myrtle Creek 0 in 3520 ft
Schweitzer Basin 0 in 6090 ft
Bear Mountain 1 in 5400 ft
Mosquito Ridge 0 in 5200 ft
Humboldt Gulch 2 in 4250 ft

Earthquake Activity

City Distance Mag. Time & Date
No recent earthquake activity has been reported nearby.
Minimum magnitude displayed is 2.5.

Coastal Water Temperatures

Place Temperature
No Stations Reporting

Nearby Weather Stations